sensor_id;sensor_type;location;lat;lon;timestamp;P1;durP1;ratioP1;P2;durP2;ratioP2
67675;SDS011;54456;48.436;10.028;2023-05-07T03:16:48;15.13;;;6.65;;
67675;SDS011;54456;48.436;10.028;2023-05-07T03:19:11;12.68;;;6.72;;
67675;SDS011;54456;48.436;10.028;2023-05-07T03:21:35;12.35;;;6.30;;
67675;SDS011;54456;48.436;10.028;2023-05-07T03:23:57;13.43;;;6.85;;
67675;SDS011;54456;48.436;10.028;2023-05-07T03:26:20;12.40;;;7.18;;
67675;SDS011;54456;48.436;10.028;2023-05-07T03:28:43;12.38;;;6.55;;
67675;SDS011;54456;48.436;10.028;2023-05-07T03:31:06;11.85;;;6.63;;
67675;SDS011;54456;48.436;10.028;2023-05-07T03:33:29;13.73;;;6.75;;
67675;SDS011;54456;48.436;10.028;2023-05-07T03:35:52;12.45;;;6.55;;
67675;SDS011;54456;48.436;10.028;2023-05-07T03:38:14;12.57;;;7.30;;
67675;SDS011;54456;48.436;10.028;2023-05-07T03:40:37;15.20;;;7.03;;
67675;SDS011;54456;48.436;10.028;2023-05-07T03:43:00;13.32;;;6.85;;
67675;SDS011;54456;48.436;10.028;2023-05-07T03:45:23;12.80;;;7.00;;
67675;SDS011;54456;48.436;10.028;2023-05-07T03:47:46;14.73;;;7.80;;
67675;SDS011;54456;48.436;10.028;2023-05-07T03:50:09;12.43;;;7.28;;
67675;SDS011;54456;48.436;10.028;2023-05-07T03:52:32;14.85;;;7.35;;
67675;SDS011;54456;48.436;10.028;2023-05-07T03:54:55;14.63;;;7.40;;
67675;SDS011;54456;48.436;10.028;2023-05-07T03:57:17;13.38;;;6.70;;
67675;SDS011;54456;48.436;10.028;2023-05-07T03:59:40;14.65;;;7.60;;
67675;SDS011;54456;48.436;10.028;2023-05-07T04:02:08;14.02;;;7.32;;
67675;SDS011;54456;48.436;10.028;2023-05-07T04:04:30;16.95;;;7.35;;
67675;SDS011;54456;48.436;10.028;2023-05-07T04:06:53;15.05;;;7.22;;
67675;SDS011;54456;48.436;10.028;2023-05-07T04:09:16;13.52;;;7.00;;
67675;SDS011;54456;48.436;10.028;2023-05-07T04:11:40;12.05;;;6.60;;
67675;SDS011;54456;48.436;10.028;2023-05-07T04:14:02;14.55;;;7.00;;
67675;SDS011;54456;48.436;10.028;2023-05-07T04:16:25;11.60;;;6.35;;
67675;SDS011;54456;48.436;10.028;2023-05-07T04:18:48;12.27;;;6.57;;
67675;SDS011;54456;48.436;10.028;2023-05-07T04:21:15;13.95;;;7.22;;
67675;SDS011;54456;48.436;10.028;2023-05-07T04:23:39;12.35;;;6.72;;
67675;SDS011;54456;48.436;10.028;2023-05-07T04:26:03;11.93;;;6.38;;
67675;SDS011;54456;48.436;10.028;2023-05-07T04:28:25;13.48;;;6.70;;
67675;SDS011;54456;48.436;10.028;2023-05-07T04:30:48;13.60;;;6.50;;
67675;SDS011;54456;48.436;10.028;2023-05-07T04:33:14;13.20;;;6.75;;
67675;SDS011;54456;48.436;10.028;2023-05-07T04:35:37;13.20;;;6.55;;
67675;SDS011;54456;48.436;10.028;2023-05-07T04:38:00;14.02;;;6.63;;
67675;SDS011;54456;48.436;10.028;2023-05-07T04:40:23;12.65;;;7.18;;
67675;SDS011;54456;48.436;10.028;2023-05-07T04:42:46;12.40;;;6.80;;
67675;SDS011;54456;48.436;10.028;2023-05-07T04:45:10;13.40;;;6.75;;
67675;SDS011;54456;48.436;10.028;2023-05-07T04:47:32;12.73;;;6.70;;
67675;SDS011;54456;48.436;10.028;2023-05-07T04:49:57;14.05;;;6.78;;
67675;SDS011;54456;48.436;10.028;2023-05-07T04:52:20;13.10;;;6.80;;
67675;SDS011;54456;48.436;10.028;2023-05-07T04:54:43;12.48;;;6.88;;
67675;SDS011;54456;48.436;10.028;2023-05-07T04:57:06;14.48;;;6.47;;
67675;SDS011;54456;48.436;10.028;2023-05-07T04:59:31;12.68;;;6.85;;
67675;SDS011;54456;48.436;10.028;2023-05-07T05:01:55;12.13;;;6.18;;
67675;SDS011;54456;48.436;10.028;2023-05-07T05:04:18;13.07;;;6.20;;
67675;SDS011;54456;48.436;10.028;2023-05-07T05:06:41;14.15;;;6.65;;
67675;SDS011;54456;48.436;10.028;2023-05-07T05:09:03;13.52;;;6.65;;
67675;SDS011;54456;48.436;10.028;2023-05-07T05:11:27;11.50;;;5.97;;
67675;SDS011;54456;48.436;10.028;2023-05-07T05:13:50;12.88;;;6.80;;
67675;SDS011;54456;48.436;10.028;2023-05-07T05:16:13;12.63;;;6.30;;
67675;SDS011;54456;48.436;10.028;2023-05-07T05:18:36;10.75;;;5.78;;
67675;SDS011;54456;48.436;10.028;2023-05-07T05:20:59;11.05;;;6.05;;
67675;SDS011;54456;48.436;10.028;2023-05-07T05:23:22;11.40;;;5.57;;
67675;SDS011;54456;48.436;10.028;2023-05-07T05:25:45;12.43;;;6.43;;
67675;SDS011;54456;48.436;10.028;2023-05-07T05:28:08;10.68;;;5.47;;
67675;SDS011;54456;48.436;10.028;2023-05-07T05:30:34;11.65;;;5.93;;
67675;SDS011;54456;48.436;10.028;2023-05-07T05:32:56;10.57;;;5.40;;
67675;SDS011;54456;48.436;10.028;2023-05-07T05:35:19;12.25;;;5.68;;
67675;SDS011;54456;48.436;10.028;2023-05-07T05:37:43;10.95;;;5.68;;
67675;SDS011;54456;48.436;10.028;2023-05-07T05:40:06;11.57;;;5.75;;
67675;SDS011;54456;48.436;10.028;2023-05-07T05:42:29;12.07;;;6.20;;
67675;SDS011;54456;48.436;10.028;2023-05-07T05:44:52;11.60;;;5.90;;
67675;SDS011;54456;48.436;10.028;2023-05-07T05:47:15;11.27;;;6.07;;
67675;SDS011;54456;48.436;10.028;2023-05-07T05:49:38;12.52;;;6.05;;
67675;SDS011;54456;48.436;10.028;2023-05-07T05:52:01;11.88;;;6.25;;
67675;SDS011;54456;48.436;10.028;2023-05-07T05:54:24;12.27;;;6.10;;
67675;SDS011;54456;48.436;10.028;2023-05-07T05:56:47;12.77;;;6.05;;
67675;SDS011;54456;48.436;10.028;2023-05-07T05:59:10;10.98;;;6.00;;
67675;SDS011;54456;48.436;10.028;2023-05-07T06:01:34;12.50;;;6.45;;
67675;SDS011;54456;48.436;10.028;2023-05-07T06:03:57;11.55;;;6.25;;
67675;SDS011;54456;48.436;10.028;2023-05-07T06:06:20;13.25;;;6.22;;
67675;SDS011;54456;48.436;10.028;2023-05-07T06:08:42;13.43;;;6.50;;
67675;SDS011;54456;48.436;10.028;2023-05-07T06:11:05;12.25;;;6.10;;
67675;SDS011;54456;48.436;10.028;2023-05-07T06:13:28;14.00;;;6.90;;
67675;SDS011;54456;48.436;10.028;2023-05-07T06:15:51;12.90;;;6.93;;
67675;SDS011;54456;48.436;10.028;2023-05-07T06:18:14;11.93;;;6.43;;
67675;SDS011;54456;48.436;10.028;2023-05-07T06:20:37;12.27;;;6.22;;
67675;SDS011;54456;48.436;10.028;2023-05-07T06:23:00;12.25;;;6.53;;
67675;SDS011;54456;48.436;10.028;2023-05-07T06:25:24;14.07;;;6.95;;
67675;SDS011;54456;48.436;10.028;2023-05-07T06:27:47;14.45;;;6.78;;
67675;SDS011;54456;48.436;10.028;2023-05-07T06:30:10;12.95;;;6.68;;
67675;SDS011;54456;48.436;10.028;2023-05-07T06:32:46;13.45;;;7.18;;
67675;SDS011;54456;48.436;10.028;2023-05-07T06:35:09;13.20;;;7.15;;
67675;SDS011;54456;48.436;10.028;2023-05-07T06:37:32;14.18;;;7.50;;
67675;SDS011;54456;48.436;10.028;2023-05-07T06:39:02;14.13;;;7.40;;
67675;SDS011;54456;48.436;10.028;2023-05-07T06:41:25;13.88;;;6.97;;
67675;SDS011;54456;48.436;10.028;2023-05-07T06:43:26;11.68;;;6.60;;
67675;SDS011;54456;48.436;10.028;2023-05-07T06:45:49;12.38;;;6.65;;
67675;SDS011;54456;48.436;10.028;2023-05-07T06:48:12;14.18;;;7.00;;
67675;SDS011;54456;48.436;10.028;2023-05-07T06:50:35;13.70;;;7.30;;
67675;SDS011;54456;48.436;10.028;2023-05-07T06:52:58;14.05;;;7.30;;
67675;SDS011;54456;48.436;10.028;2023-05-07T06:55:20;13.65;;;7.57;;
67675;SDS011;54456;48.436;10.028;2023-05-07T06:57:43;14.32;;;7.68;;
67675;SDS011;54456;48.436;10.028;2023-05-07T07:00:07;14.98;;;7.35;;
67675;SDS011;54456;48.436;10.028;2023-05-07T07:01:58;14.20;;;7.40;;
67675;SDS011;54456;48.436;10.028;2023-05-07T07:04:18;16.33;;;7.65;;
67675;SDS011;54456;48.436;10.028;2023-05-07T07:06:41;13.23;;;7.18;;
67675;SDS011;54456;48.436;10.028;2023-05-07T07:09:05;12.80;;;7.28;;
67675;SDS011;54456;48.436;10.028;2023-05-07T07:11:28;13.10;;;7.00;;
67675;SDS011;54456;48.436;10.028;2023-05-07T07:13:51;12.65;;;7.03;;
67675;SDS011;54456;48.436;10.028;2023-05-07T07:16:13;12.90;;;6.90;;
67675;SDS011;54456;48.436;10.028;2023-05-07T07:18:36;13.00;;;7.07;;
67675;SDS011;54456;48.436;10.028;2023-05-07T07:20:59;12.25;;;6.97;;
67675;SDS011;54456;48.436;10.028;2023-05-07T07:23:22;12.50;;;7.03;;
67675;SDS011;54456;48.436;10.028;2023-05-07T07:25:49;11.27;;;6.47;;
67675;SDS011;54456;48.436;10.028;2023-05-07T07:28:12;11.88;;;7.00;;
67675;SDS011;54456;48.436;10.028;2023-05-07T07:30:37;11.75;;;6.18;;
67675;SDS011;54456;48.436;10.028;2023-05-07T07:33:00;15.30;;;6.05;;
67675;SDS011;54456;48.436;10.028;2023-05-07T07:35:23;12.23;;;6.57;;
67675;SDS011;54456;48.436;10.028;2023-05-07T07:37:47;10.25;;;5.90;;
67675;SDS011;54456;48.436;10.028;2023-05-07T07:40:11;11.55;;;6.25;;
67675;SDS011;54456;48.436;10.028;2023-05-07T07:42:34;11.93;;;5.90;;
67675;SDS011;54456;48.436;10.028;2023-05-07T07:44:57;10.70;;;5.93;;
67675;SDS011;54456;48.436;10.028;2023-05-07T07:47:20;12.00;;;6.05;;
67675;SDS011;54456;48.436;10.028;2023-05-07T07:49:43;11.45;;;6.25;;
67675;SDS011;54456;48.436;10.028;2023-05-07T07:52:06;10.20;;;5.75;;
67675;SDS011;54456;48.436;10.028;2023-05-07T07:54:28;10.40;;;5.93;;
67675;SDS011;54456;48.436;10.028;2023-05-07T07:56:53;12.88;;;6.38;;
67675;SDS011;54456;48.436;10.028;2023-05-07T07:59:15;11.65;;;6.18;;
67675;SDS011;54456;48.436;10.028;2023-05-07T08:01:39;12.18;;;6.82;;
67675;SDS011;54456;48.436;10.028;2023-05-07T08:04:02;14.13;;;6.35;;
67675;SDS011;54456;48.436;10.028;2023-05-07T08:06:25;10.40;;;6.30;;
67675;SDS011;54456;48.436;10.028;2023-05-07T08:08:50;11.40;;;6.30;;
67675;SDS011;54456;48.436;10.028;2023-05-07T08:11:13;10.73;;;6.32;;
67675;SDS011;54456;48.436;10.028;2023-05-07T08:13:36;10.18;;;6.07;;
67675;SDS011;54456;48.436;10.028;2023-05-07T08:16:00;11.32;;;6.20;;
67675;SDS011;54456;48.436;10.028;2023-05-07T08:18:23;10.70;;;6.32;;
67675;SDS011;54456;48.436;10.028;2023-05-07T08:20:46;12.00;;;6.70;;
67675;SDS011;54456;48.436;10.028;2023-05-07T08:23:09;11.80;;;6.43;;
67675;SDS011;54456;48.436;10.028;2023-05-07T08:25:33;12.32;;;6.32;;
67675;SDS011;54456;48.436;10.028;2023-05-07T08:27:56;11.85;;;6.50;;
67675;SDS011;54456;48.436;10.028;2023-05-07T08:30:19;11.90;;;6.70;;
67675;SDS011;54456;48.436;10.028;2023-05-07T08:32:44;12.80;;;6.82;;
67675;SDS011;54456;48.436;10.028;2023-05-07T08:35:08;11.48;;;6.78;;
67675;SDS011;54456;48.436;10.028;2023-05-07T08:37:31;11.18;;;6.15;;
67675;SDS011;54456;48.436;10.028;2023-05-07T08:39:54;11.68;;;6.45;;
67675;SDS011;54456;48.436;10.028;2023-05-07T08:42:17;11.85;;;6.60;;
67675;SDS011;54456;48.436;10.028;2023-05-07T08:44:42;11.43;;;6.43;;
67675;SDS011;54456;48.436;10.028;2023-05-07T08:47:07;11.98;;;7.00;;
67675;SDS011;54456;48.436;10.028;2023-05-07T08:49:31;13.07;;;7.05;;
67675;SDS011;54456;48.436;10.028;2023-05-07T08:51:56;11.05;;;6.05;;
67675;SDS011;54456;48.436;10.028;2023-05-07T08:54:20;11.57;;;6.95;;
67675;SDS011;54456;48.436;10.028;2023-05-07T08:56:43;11.55;;;6.80;;
67675;SDS011;54456;48.436;10.028;2023-05-07T08:59:06;11.90;;;7.00;;
67675;SDS011;54456;48.436;10.028;2023-05-07T09:01:29;12.38;;;7.47;;
67675;SDS011;54456;48.436;10.028;2023-05-07T09:03:52;12.77;;;7.03;;
67675;SDS011;54456;48.436;10.028;2023-05-07T09:06:15;10.45;;;6.55;;
67675;SDS011;54456;48.436;10.028;2023-05-07T09:08:38;10.88;;;6.65;;
67675;SDS011;54456;48.436;10.028;2023-05-07T09:11:02;13.07;;;7.25;;
67675;SDS011;54456;48.436;10.028;2023-05-07T09:13:29;11.85;;;7.13;;
67675;SDS011;54456;48.436;10.028;2023-05-07T09:15:52;11.73;;;6.97;;
67675;SDS011;54456;48.436;10.028;2023-05-07T09:18:16;12.65;;;7.38;;
67675;SDS011;54456;48.436;10.028;2023-05-07T09:20:39;12.57;;;6.97;;
67675;SDS011;54456;48.436;10.028;2023-05-07T09:25:15;11.68;;;6.85;;
67675;SDS011;54456;48.436;10.028;2023-05-07T09:27:53;13.55;;;7.03;;
67675;SDS011;54456;48.436;10.028;2023-05-07T09:30:16;11.55;;;6.43;;
67675;SDS011;54456;48.436;10.028;2023-05-07T09:32:40;12.30;;;6.80;;
67675;SDS011;54456;48.436;10.028;2023-05-07T09:35:02;11.05;;;6.65;;
67675;SDS011;54456;48.436;10.028;2023-05-07T09:37:26;11.27;;;6.28;;
67675;SDS011;54456;48.436;10.028;2023-05-07T09:39:39;12.00;;;6.30;;
67675;SDS011;54456;48.436;10.028;2023-05-07T09:42:02;11.27;;;5.60;;
67675;SDS011;54456;48.436;10.028;2023-05-07T09:44:24;11.27;;;6.47;;
67675;SDS011;54456;48.436;10.028;2023-05-07T09:46:56;11.30;;;6.60;;
67675;SDS011;54456;48.436;10.028;2023-05-07T09:49:20;9.80;;;5.32;;
67675;SDS011;54456;48.436;10.028;2023-05-07T09:51:45;9.70;;;5.53;;
67675;SDS011;54456;48.436;10.028;2023-05-07T09:54:10;10.10;;;5.40;;
67675;SDS011;54456;48.436;10.028;2023-05-07T09:56:33;10.85;;;6.55;;
67675;SDS011;54456;48.436;10.028;2023-05-07T09:58:58;9.48;;;5.63;;
67675;SDS011;54456;48.436;10.028;2023-05-07T10:00:31;9.60;;;5.57;;
67675;SDS011;54456;48.436;10.028;2023-05-07T10:02:18;10.35;;;6.20;;
67675;SDS011;54456;48.436;10.028;2023-05-07T10:04:37;11.98;;;6.85;;
67675;SDS011;54456;48.436;10.028;2023-05-07T10:07:00;11.55;;;6.68;;
67675;SDS011;54456;48.436;10.028;2023-05-07T10:09:23;10.57;;;6.78;;
67675;SDS011;54456;48.436;10.028;2023-05-07T10:11:46;10.75;;;6.03;;
67675;SDS011;54456;48.436;10.028;2023-05-07T10:14:11;12.38;;;7.75;;
67675;SDS011;54456;48.436;10.028;2023-05-07T10:16:38;12.55;;;7.15;;
67675;SDS011;54456;48.436;10.028;2023-05-07T10:19:02;12.32;;;6.75;;
67675;SDS011;54456;48.436;10.028;2023-05-07T10:21:26;13.20;;;7.35;;
67675;SDS011;54456;48.436;10.028;2023-05-07T10:23:51;14.38;;;7.70;;
67675;SDS011;54456;48.436;10.028;2023-05-07T10:26:17;15.60;;;6.35;;
67675;SDS011;54456;48.436;10.028;2023-05-07T10:28:41;12.82;;;7.30;;
67675;SDS011;54456;48.436;10.028;2023-05-07T10:31:33;12.77;;;7.15;;
67675;SDS011;54456;48.436;10.028;2023-05-07T10:34:10;14.70;;;6.95;;
67675;SDS011;54456;48.436;10.028;2023-05-07T10:36:35;12.20;;;6.50;;
67675;SDS011;54456;48.436;10.028;2023-05-07T10:38:58;13.63;;;7.43;;
67675;SDS011;54456;48.436;10.028;2023-05-07T10:41:21;11.43;;;6.22;;
67675;SDS011;54456;48.436;10.028;2023-05-07T10:43:45;13.02;;;6.93;;
67675;SDS011;54456;48.436;10.028;2023-05-07T10:51:21;12.70;;;7.20;;
67675;SDS011;54456;48.436;10.028;2023-05-07T10:53:45;14.13;;;7.30;;
67675;SDS011;54456;48.436;10.028;2023-05-07T10:59:22;11.32;;;6.78;;
67675;SDS011;54456;48.436;10.028;2023-05-07T11:01:55;11.50;;;6.53;;
67675;SDS011;54456;48.436;10.028;2023-05-07T11:04:30;11.05;;;6.60;;
67675;SDS011;54456;48.436;10.028;2023-05-07T11:15:10;12.15;;;6.10;;
67675;SDS011;54456;48.436;10.028;2023-05-07T11:17:34;12.68;;;6.85;;
67675;SDS011;54456;48.436;10.028;2023-05-07T11:19:56;11.65;;;7.43;;
67675;SDS011;54456;48.436;10.028;2023-05-07T11:25:02;12.55;;;7.20;;
67675;SDS011;54456;48.436;10.028;2023-05-07T11:27:13;13.25;;;6.60;;
67675;SDS011;54456;48.436;10.028;2023-05-07T11:29:41;11.55;;;6.75;;
67675;SDS011;54456;48.436;10.028;2023-05-07T11:32:10;11.45;;;6.28;;
67675;SDS011;54456;48.436;10.028;2023-05-07T11:34:34;11.82;;;7.00;;
67675;SDS011;54456;48.436;10.028;2023-05-07T11:36:30;13.32;;;8.10;;
67675;SDS011;54456;48.436;10.028;2023-05-07T11:38:53;12.25;;;7.68;;
67675;SDS011;54456;48.436;10.028;2023-05-07T11:41:16;14.10;;;7.40;;
67675;SDS011;54456;48.436;10.028;2023-05-07T11:43:56;11.02;;;6.75;;
67675;SDS011;54456;48.436;10.028;2023-05-07T11:46:19;11.07;;;6.78;;
67675;SDS011;54456;48.436;10.028;2023-05-07T11:48:47;10.40;;;6.07;;
67675;SDS011;54456;48.436;10.028;2023-05-07T11:51:10;10.93;;;6.55;;
67675;SDS011;54456;48.436;10.028;2023-05-07T11:53:37;11.02;;;5.18;;
67675;SDS011;54456;48.436;10.028;2023-05-07T11:56:10;10.82;;;5.45;;
67675;SDS011;54456;48.436;10.028;2023-05-07T11:58:34;12.35;;;6.72;;
67675;SDS011;54456;48.436;10.028;2023-05-07T12:00:56;11.57;;;6.03;;
67675;SDS011;54456;48.436;10.028;2023-05-07T12:03:20;11.00;;;6.15;;
67675;SDS011;54456;48.436;10.028;2023-05-07T12:05:43;10.20;;;5.63;;
67675;SDS011;54456;48.436;10.028;2023-05-07T12:08:07;11.75;;;6.30;;
67675;SDS011;54456;48.436;10.028;2023-05-07T12:10:30;10.18;;;5.50;;
67675;SDS011;54456;48.436;10.028;2023-05-07T12:12:54;9.50;;;4.95;;
67675;SDS011;54456;48.436;10.028;2023-05-07T12:15:17;12.20;;;5.28;;
67675;SDS011;54456;48.436;10.028;2023-05-07T12:17:40;10.38;;;5.10;;
67675;SDS011;54456;48.436;10.028;2023-05-07T12:20:03;9.90;;;4.95;;
67675;SDS011;54456;48.436;10.028;2023-05-07T12:22:26;11.93;;;4.75;;
67675;SDS011;54456;48.436;10.028;2023-05-07T12:24:56;10.63;;;5.03;;
67675;SDS011;54456;48.436;10.028;2023-05-07T12:27:19;8.82;;;4.68;;
67675;SDS011;54456;48.436;10.028;2023-05-07T12:29:46;8.40;;;4.22;;
67675;SDS011;54456;48.436;10.028;2023-05-07T12:32:12;8.93;;;3.92;;
67675;SDS011;54456;48.436;10.028;2023-05-07T12:34:17;8.45;;;4.40;;
67675;SDS011;54456;48.436;10.028;2023-05-07T12:36:40;9.13;;;4.22;;
67675;SDS011;54456;48.436;10.028;2023-05-07T12:38:14;7.32;;;4.00;;
67675;SDS011;54456;48.436;10.028;2023-05-07T12:40:38;7.57;;;4.13;;
67675;SDS011;54456;48.436;10.028;2023-05-07T12:42:21;8.35;;;3.97;;
67675;SDS011;54456;48.436;10.028;2023-05-07T12:44:50;9.00;;;4.00;;
67675;SDS011;54456;48.436;10.028;2023-05-07T12:47:13;7.68;;;3.65;;
67675;SDS011;54456;48.436;10.028;2023-05-07T12:49:37;6.60;;;3.50;;
67675;SDS011;54456;48.436;10.028;2023-05-07T12:52:03;7.90;;;3.35;;
67675;SDS011;54456;48.436;10.028;2023-05-07T12:56:25;7.85;;;3.33;;
67675;SDS011;54456;48.436;10.028;2023-05-07T12:57:56;5.93;;;3.30;;
67675;SDS011;54456;48.436;10.028;2023-05-07T13:00:34;6.60;;;3.63;;
67675;SDS011;54456;48.436;10.028;2023-05-07T13:03:03;6.93;;;3.25;;
67675;SDS011;54456;48.436;10.028;2023-05-07T13:05:31;6.68;;;3.60;;
67675;SDS011;54456;48.436;10.028;2023-05-07T13:07:02;7.53;;;3.75;;
67675;SDS011;54456;48.436;10.028;2023-05-07T13:08:33;7.97;;;4.20;;
67675;SDS011;54456;48.436;10.028;2023-05-07T13:10:05;8.55;;;3.97;;
67675;SDS011;54456;48.436;10.028;2023-05-07T13:11:58;7.55;;;3.65;;
67675;SDS011;54456;48.436;10.028;2023-05-07T13:14:21;6.03;;;3.22;;
67675;SDS011;54456;48.436;10.028;2023-05-07T13:15:52;7.32;;;3.42;;
67675;SDS011;54456;48.436;10.028;2023-05-07T13:17:22;8.00;;;3.37;;
67675;SDS011;54456;48.436;10.028;2023-05-07T13:18:52;7.60;;;3.30;;
67675;SDS011;54456;48.436;10.028;2023-05-07T13:20:27;7.28;;;3.70;;
67675;SDS011;54456;48.436;10.028;2023-05-07T13:22:49;7.13;;;3.60;;
67675;SDS011;54456;48.436;10.028;2023-05-07T13:25:12;8.05;;;3.65;;
67675;SDS011;54456;48.436;10.028;2023-05-07T13:27:35;6.93;;;3.47;;
67675;SDS011;54456;48.436;10.028;2023-05-07T13:29:07;6.72;;;3.53;;
67675;SDS011;54456;48.436;10.028;2023-05-07T13:31:27;7.28;;;3.45;;
67675;SDS011;54456;48.436;10.028;2023-05-07T13:33:49;7.50;;;3.60;;
67675;SDS011;54456;48.436;10.028;2023-05-07T13:36:12;7.93;;;3.40;;
67675;SDS011;54456;48.436;10.028;2023-05-07T13:38:38;7.53;;;3.50;;
67675;SDS011;54456;48.436;10.028;2023-05-07T13:41:02;6.63;;;3.38;;
67675;SDS011;54456;48.436;10.028;2023-05-07T13:43:25;6.85;;;2.95;;
67675;SDS011;54456;48.436;10.028;2023-05-07T13:45:48;6.20;;;2.80;;
67675;SDS011;54456;48.436;10.028;2023-05-07T13:48:10;6.95;;;3.65;;
67675;SDS011;54456;48.436;10.028;2023-05-07T13:50:33;8.25;;;3.47;;
67675;SDS011;54456;48.436;10.028;2023-05-07T13:52:56;7.95;;;3.42;;
67675;SDS011;54456;48.436;10.028;2023-05-07T13:55:20;7.80;;;3.47;;
67675;SDS011;54456;48.436;10.028;2023-05-07T13:57:44;6.20;;;3.20;;
67675;SDS011;54456;48.436;10.028;2023-05-07T14:00:07;7.28;;;3.60;;
67675;SDS011;54456;48.436;10.028;2023-05-07T14:02:30;6.97;;;3.67;;
67675;SDS011;54456;48.436;10.028;2023-05-07T14:04:53;6.95;;;3.45;;
67675;SDS011;54456;48.436;10.028;2023-05-07T14:07:16;8.30;;;3.40;;
67675;SDS011;54456;48.436;10.028;2023-05-07T14:09:39;5.75;;;2.97;;
67675;SDS011;54456;48.436;10.028;2023-05-07T14:12:04;8.80;;;3.42;;
67675;SDS011;54456;48.436;10.028;2023-05-07T14:14:27;7.53;;;3.42;;
67675;SDS011;54456;48.436;10.028;2023-05-07T14:16:50;7.57;;;3.70;;
67675;SDS011;54456;48.436;10.028;2023-05-07T14:19:13;8.80;;;3.65;;
67675;SDS011;54456;48.436;10.028;2023-05-07T14:21:37;10.20;;;3.47;;
67675;SDS011;54456;48.436;10.028;2023-05-07T14:23:59;7.03;;;3.30;;
67675;SDS011;54456;48.436;10.028;2023-05-07T14:26:22;6.50;;;3.15;;
67675;SDS011;54456;48.436;10.028;2023-05-07T14:28:45;7.15;;;3.20;;
67675;SDS011;54456;48.436;10.028;2023-05-07T14:31:08;6.80;;;3.13;;
67675;SDS011;54456;48.436;10.028;2023-05-07T14:33:32;7.10;;;3.58;;
67675;SDS011;54456;48.436;10.028;2023-05-07T14:35:55;7.32;;;3.75;;
67675;SDS011;54456;48.436;10.028;2023-05-07T14:38:18;7.13;;;3.63;;
67675;SDS011;54456;48.436;10.028;2023-05-07T14:40:41;7.30;;;3.10;;
67675;SDS011;54456;48.436;10.028;2023-05-07T14:43:04;7.63;;;3.00;;
67675;SDS011;54456;48.436;10.028;2023-05-07T14:45:28;8.15;;;3.90;;
67675;SDS011;54456;48.436;10.028;2023-05-07T14:47:51;7.22;;;3.30;;
67675;SDS011;54456;48.436;10.028;2023-05-07T14:50:17;8.10;;;3.53;;
67675;SDS011;54456;48.436;10.028;2023-05-07T14:52:40;6.82;;;3.40;;
67675;SDS011;54456;48.436;10.028;2023-05-07T14:55:03;7.20;;;3.50;;
67675;SDS011;54456;48.436;10.028;2023-05-07T14:57:27;6.97;;;3.60;;
67675;SDS011;54456;48.436;10.028;2023-05-07T14:59:50;10.25;;;3.50;;
67675;SDS011;54456;48.436;10.028;2023-05-07T15:02:13;7.60;;;3.55;;
67675;SDS011;54456;48.436;10.028;2023-05-07T15:04:37;8.18;;;3.72;;
67675;SDS011;54456;48.436;10.028;2023-05-07T15:07:00;7.82;;;3.78;;
67675;SDS011;54456;48.436;10.028;2023-05-07T15:09:23;7.70;;;3.80;;
67675;SDS011;54456;48.436;10.028;2023-05-07T15:11:46;8.88;;;4.13;;
67675;SDS011;54456;48.436;10.028;2023-05-07T15:14:09;8.30;;;4.00;;
67675;SDS011;54456;48.436;10.028;2023-05-07T15:16:31;7.72;;;3.97;;
67675;SDS011;54456;48.436;10.028;2023-05-07T15:18:54;8.13;;;4.07;;
67675;SDS011;54456;48.436;10.028;2023-05-07T15:21:16;8.90;;;4.25;;
67675;SDS011;54456;48.436;10.028;2023-05-07T15:23:39;9.75;;;4.45;;
67675;SDS011;54456;48.436;10.028;2023-05-07T15:26:02;9.20;;;4.95;;
67675;SDS011;54456;48.436;10.028;2023-05-07T15:28:25;9.60;;;4.43;;
67675;SDS011;54456;48.436;10.028;2023-05-07T15:30:48;10.20;;;5.20;;
67675;SDS011;54456;48.436;10.028;2023-05-07T15:33:10;9.75;;;5.50;;
67675;SDS011;54456;48.436;10.028;2023-05-07T15:35:33;9.40;;;5.20;;
67675;SDS011;54456;48.436;10.028;2023-05-07T15:37:57;10.63;;;5.22;;
67675;SDS011;54456;48.436;10.028;2023-05-07T15:40:20;10.77;;;5.28;;
67675;SDS011;54456;48.436;10.028;2023-05-07T15:42:44;12.30;;;6.32;;
67675;SDS011;54456;48.436;10.028;2023-05-07T15:45:13;9.95;;;5.85;;
67675;SDS011;54456;48.436;10.028;2023-05-07T15:47:36;12.27;;;6.60;;
67675;SDS011;54456;48.436;10.028;2023-05-07T15:50:00;11.00;;;6.25;;
67675;SDS011;54456;48.436;10.028;2023-05-07T15:52:23;10.80;;;5.53;;
67675;SDS011;54456;48.436;10.028;2023-05-07T15:54:46;11.20;;;6.10;;
67675;SDS011;54456;48.436;10.028;2023-05-07T15:57:11;10.50;;;5.95;;
67675;SDS011;54456;48.436;10.028;2023-05-07T15:59:35;9.43;;;4.85;;
67675;SDS011;54456;48.436;10.028;2023-05-07T16:01:58;9.25;;;3.80;;
67675;SDS011;54456;48.436;10.028;2023-05-07T16:04:21;8.02;;;3.90;;
67675;SDS011;54456;48.436;10.028;2023-05-07T16:06:44;7.60;;;3.78;;
67675;SDS011;54456;48.436;10.028;2023-05-07T16:09:08;9.52;;;3.70;;
67675;SDS011;54456;48.436;10.028;2023-05-07T16:11:31;7.88;;;3.85;;
67675;SDS011;54456;48.436;10.028;2023-05-07T16:13:54;8.35;;;3.58;;
67675;SDS011;54456;48.436;10.028;2023-05-07T16:16:18;10.40;;;4.43;;
67675;SDS011;54456;48.436;10.028;2023-05-07T16:18:41;9.13;;;4.40;;
67675;SDS011;54456;48.436;10.028;2023-05-07T16:21:04;9.77;;;4.68;;
67675;SDS011;54456;48.436;10.028;2023-05-07T16:23:27;11.77;;;5.13;;
67675;SDS011;54456;48.436;10.028;2023-05-07T16:25:50;18.40;;;7.05;;
67675;SDS011;54456;48.436;10.028;2023-05-07T16:28:13;11.93;;;5.38;;
67675;SDS011;54456;48.436;10.028;2023-05-07T16:30:36;13.30;;;6.00;;
67675;SDS011;54456;48.436;10.028;2023-05-07T16:32:59;22.42;;;7.68;;
67675;SDS011;54456;48.436;10.028;2023-05-07T16:35:21;25.73;;;7.97;;
67675;SDS011;54456;48.436;10.028;2023-05-07T16:37:44;34.28;;;9.85;;
67675;SDS011;54456;48.436;10.028;2023-05-07T16:40:07;26.83;;;9.32;;
67675;SDS011;54456;48.436;10.028;2023-05-07T16:41:55;65.22;;;13.25;;
67675;SDS011;54456;48.436;10.028;2023-05-07T16:43:25;28.53;;;11.53;;
67675;SDS011;54456;48.436;10.028;2023-05-07T16:45:48;23.65;;;10.52;;
67675;SDS011;54456;48.436;10.028;2023-05-07T16:48:11;22.48;;;9.85;;
67675;SDS011;54456;48.436;10.028;2023-05-07T16:50:34;24.27;;;10.90;;
67675;SDS011;54456;48.436;10.028;2023-05-07T16:52:58;27.50;;;12.88;;
67675;SDS011;54456;48.436;10.028;2023-05-07T16:55:21;27.63;;;11.07;;
67675;SDS011;54456;48.436;10.028;2023-05-07T16:57:43;38.08;;;12.07;;
67675;SDS011;54456;48.436;10.028;2023-05-07T16:59:52;22.08;;;9.25;;
67675;SDS011;54456;48.436;10.028;2023-05-07T17:01:52;21.50;;;10.07;;
67675;SDS011;54456;48.436;10.028;2023-05-07T17:03:24;22.02;;;10.52;;
67675;SDS011;54456;48.436;10.028;2023-05-07T17:05:47;21.58;;;9.85;;
67675;SDS011;54456;48.436;10.028;2023-05-07T17:08:10;16.60;;;6.10;;
67675;SDS011;54456;48.436;10.028;2023-05-07T17:10:33;13.30;;;5.57;;
67675;SDS011;54456;48.436;10.028;2023-05-07T17:13:00;13.25;;;5.00;;
67675;SDS011;54456;48.436;10.028;2023-05-07T17:14:30;6.83;;;2.70;;
67675;SDS011;54456;48.436;10.028;2023-05-07T17:16:53;8.48;;;2.72;;
67675;SDS011;54456;48.436;10.028;2023-05-07T17:19:16;10.57;;;3.08;;
67675;SDS011;54456;48.436;10.028;2023-05-07T17:21:39;6.65;;;2.60;;
67675;SDS011;54456;48.436;10.028;2023-05-07T17:24:02;5.03;;;2.20;;
67675;SDS011;54456;48.436;10.028;2023-05-07T17:26:25;5.20;;;2.30;;